createdAt,value
2017-09-29T00:00:15.560Z,61.1
2017-09-29T00:01:17.227Z,61.2
2017-09-29T00:02:18.882Z,61.2
2017-09-29T00:03:20.558Z,61.0
2017-09-29T00:04:22.222Z,61.3
2017-09-29T00:05:23.870Z,61.2
2017-09-29T00:06:25.527Z,61.8
2017-09-29T00:07:27.191Z,62.0
2017-09-29T00:08:28.860Z,62.0
2017-09-29T00:09:30.524Z,62.1
2017-09-29T00:10:32.188Z,62.6
2017-09-29T00:11:33.849Z,62.9
2017-09-29T00:12:35.501Z,62.4
2017-09-29T00:13:37.156Z,63.0
2017-09-29T00:14:38.809Z,62.8
2017-09-29T00:15:40.495Z,62.5
2017-09-29T00:16:42.156Z,62.9
2017-09-29T00:17:43.823Z,62.5
2017-09-29T00:18:45.513Z,62.6
2017-09-29T00:19:47.164Z,62.5
2017-09-29T00:20:48.850Z,61.7
2017-09-29T00:21:50.505Z,61.3
2017-09-29T00:22:52.195Z,61.7
2017-09-29T00:23:53.845Z,62.0
2017-09-29T00:24:55.580Z,62.5
2017-09-29T00:25:57.241Z,62.2
2017-09-29T00:26:58.911Z,62.4
2017-09-29T00:28:00.553Z,62.4
2017-09-29T00:29:02.214Z,62.6
2017-09-29T00:30:03.889Z,61.8
2017-09-29T00:31:06.504Z,61.9
2017-09-29T00:32:08.162Z,62.0
2017-09-29T00:33:09.863Z,62.1
2017-09-29T00:34:11.533Z,62.0
2017-09-29T00:35:13.180Z,62.8
2017-09-29T00:36:14.844Z,63.8
2017-09-29T00:37:16.505Z,64.9
2017-09-29T00:38:18.155Z,65.7
2017-09-29T00:39:19.816Z,65.8
2017-09-29T00:40:21.475Z,66.5
2017-09-29T00:41:23.133Z,66.4
2017-09-29T00:42:24.792Z,66.4
2017-09-29T00:43:26.462Z,66.5
2017-09-29T00:44:28.137Z,66.0
2017-09-29T00:45:29.792Z,66.0
2017-09-29T00:46:31.465Z,65.4
2017-09-29T00:47:33.134Z,65.6
2017-09-29T00:48:34.800Z,65.1
2017-09-29T00:49:36.456Z,65.0
2017-09-29T00:50:38.734Z,64.8
2017-09-29T00:51:40.401Z,65.8
2017-09-29T00:52:42.060Z,66.5
2017-09-29T00:53:43.730Z,66.4
2017-09-29T00:54:45.389Z,67.3
2017-09-29T00:55:47.059Z,67.5
2017-09-29T00:56:48.709Z,67.7
2017-09-29T00:57:50.370Z,67.2
2017-09-29T00:58:52.042Z,67.1
2017-09-29T00:59:53.750Z,67.0
2017-09-29T01:00:55.430Z,66.3
2017-09-29T01:01:57.097Z,66.3
2017-09-29T01:02:58.757Z,66.2
2017-09-29T01:04:00.418Z,66.4
2017-09-29T01:05:02.079Z,66.4
2017-09-29T01:06:03.734Z,66.2
2017-09-29T01:07:05.402Z,66.4
2017-09-29T01:08:07.070Z,66.3
2017-09-29T01:09:08.744Z,66.5
2017-09-29T01:10:10.397Z,66.5
2017-09-29T01:11:12.053Z,67.1
2017-09-29T01:12:13.710Z,67.1
2017-09-29T01:13:15.368Z,66.8
2017-09-29T01:14:17.031Z,67.3
2017-09-29T01:15:18.680Z,67.0
2017-09-29T01:16:20.341Z,67.5
2017-09-29T01:17:21.995Z,68.2
2017-09-29T01:18:23.648Z,68.6
2017-09-29T01:19:25.305Z,68.8
2017-09-29T01:20:26.958Z,68.8
2017-09-29T01:21:28.618Z,69.6
2017-09-29T01:22:30.266Z,68.9
2017-09-29T01:23:31.931Z,69.2
2017-09-29T01:24:33.591Z,69.0
2017-09-29T01:25:35.239Z,68.9
2017-09-29T01:26:36.907Z,69.4
2017-09-29T01:27:38.566Z,69.3
2017-09-29T01:28:40.221Z,69.0
2017-09-29T01:29:41.880Z,69.5
2017-09-29T01:30:43.535Z,69.2
2017-09-29T01:31:45.200Z,69.2
2017-09-29T01:32:46.877Z,69.0
2017-09-29T01:33:48.552Z,69.2
2017-09-29T01:34:50.209Z,69.4
2017-09-29T01:35:51.862Z,70.1
2017-09-29T01:36:53.527Z,69.4
2017-09-29T01:37:55.999Z,70.1
2017-09-29T01:38:57.658Z,69.3
2017-09-29T01:39:59.314Z,69.7
2017-09-29T01:41:00.976Z,69.9
2017-09-29T01:42:02.622Z,69.4
2017-09-29T01:43:04.298Z,69.2
2017-09-29T01:44:05.957Z,69.7
2017-09-29T01:45:07.623Z,69.3
2017-09-29T01:46:09.273Z,68.8
2017-09-29T01:47:10.936Z,69.2
2017-09-29T01:48:12.613Z,69.3
2017-09-29T01:49:14.292Z,69.2
2017-09-29T01:50:15.945Z,69.3
2017-09-29T01:51:17.600Z,69.2
2017-09-29T01:52:19.258Z,68.8
2017-09-29T01:53:20.917Z,68.5
2017-09-29T01:54:22.572Z,68.0
2017-09-29T01:55:24.263Z,68.2
2017-09-29T02:01:41.088Z,67.9
2017-09-29T02:02:42.744Z,68.4
2017-09-29T02:03:44.394Z,68.0
2017-09-29T02:04:46.039Z,68.4
2017-09-29T02:05:47.694Z,68.8
2017-09-29T02:06:49.348Z,68.8
2017-09-29T02:07:51.013Z,68.8
2017-09-29T02:08:52.680Z,68.6
2017-09-29T02:09:54.341Z,68.0
2017-09-29T02:10:55.995Z,68.3
2017-09-29T02:11:57.648Z,68.3
2017-09-29T02:12:59.349Z,68.0
2017-09-29T02:14:01.007Z,67.4
2017-09-29T02:15:02.660Z,67.5
2017-09-29T02:16:04.318Z,67.9
2017-09-29T02:17:05.973Z,67.7
2017-09-29T02:18:07.650Z,67.5
2017-09-29T02:19:09.308Z,67.8
2017-09-29T02:20:10.961Z,67.9
2017-09-29T02:21:12.641Z,67.9
2017-09-29T02:22:14.308Z,67.3
2017-09-29T02:23:15.966Z,67.5
2017-09-29T02:24:17.626Z,67.2
2017-09-29T02:25:19.285Z,66.8
2017-09-29T02:26:20.946Z,66.3
2017-09-29T02:27:22.612Z,65.3
2017-09-29T02:28:24.268Z,64.8
2017-09-29T02:29:25.948Z,64.6
2017-09-29T02:30:27.605Z,64.4
2017-09-29T02:31:29.268Z,62.7
2017-09-29T02:32:30.928Z,61.0
2017-09-29T02:33:32.581Z,60.4
2017-09-29T02:34:34.236Z,59.0
2017-09-29T02:35:35.897Z,57.8
2017-09-29T02:36:37.561Z,57.1
2017-09-29T02:37:39.211Z,57.9
2017-09-29T02:38:40.906Z,58.1
2017-09-29T02:39:42.522Z,58.0
2017-09-29T02:40:44.173Z,58.2
2017-09-29T02:41:45.834Z,58.6
2017-09-29T02:42:47.487Z,58.8
2017-09-29T02:43:49.142Z,59.3
2017-09-29T02:44:50.811Z,59.3
2017-09-29T02:45:52.462Z,59.5
2017-09-29T02:46:54.123Z,59.6
2017-09-29T02:47:55.771Z,57.9
2017-09-29T02:48:57.434Z,57.8
2017-09-29T02:49:59.101Z,57.3
2017-09-29T02:51:00.749Z,57.6
2017-09-29T02:52:02.412Z,57.1
2017-09-29T02:53:04.066Z,56.4
2017-09-29T02:54:05.808Z,56.3
2017-09-29T02:55:07.476Z,56.3
2017-09-29T02:56:09.139Z,55.8
2017-09-29T02:57:10.802Z,56.3
2017-09-29T02:58:12.507Z,56.0
2017-09-29T02:59:14.158Z,55.7
2017-09-29T03:00:15.817Z,55.5
2017-09-29T03:01:17.498Z,54.7
2017-09-29T03:02:19.160Z,54.3
2017-09-29T03:03:20.810Z,54.6
2017-09-29T03:04:22.460Z,55.3
2017-09-29T03:05:24.107Z,54.9
2017-09-29T03:06:25.778Z,55.3
2017-09-29T03:07:27.429Z,55.4
2017-09-29T03:08:29.097Z,55.2
2017-09-29T03:09:30.751Z,54.7
2017-09-29T03:10:32.413Z,54.8
2017-09-29T03:11:34.076Z,54.6
2017-09-29T03:12:35.740Z,54.9
2017-09-29T03:13:37.399Z,55.8
2017-09-29T03:14:39.052Z,55.7
2017-09-29T03:15:40.702Z,55.9
2017-09-29T03:16:42.363Z,56.1
2017-09-29T03:17:44.027Z,56.5
2017-09-29T03:18:45.707Z,56.4
2017-09-29T03:19:47.368Z,56.4
2017-09-29T03:20:49.026Z,56.8
2017-09-29T03:21:50.675Z,56.7
2017-09-29T03:22:52.348Z,56.7
2017-09-29T03:23:53.986Z,57.2
2017-09-29T03:24:55.654Z,56.7
2017-09-29T03:25:57.309Z,56.6
2017-09-29T03:26:58.958Z,56.6
2017-09-29T03:28:00.617Z,56.1
2017-09-29T03:29:02.267Z,56.4
2017-09-29T03:30:03.923Z,56.1
2017-09-29T03:31:05.578Z,56.0
2017-09-29T03:32:07.235Z,56.5
2017-09-29T03:33:08.886Z,56.5
2017-09-29T03:34:10.540Z,56.3
2017-09-29T03:35:12.231Z,56.6
2017-09-29T03:36:13.892Z,56.3
2017-09-29T03:37:15.556Z,56.4
2017-09-29T03:38:17.218Z,56.5
2017-09-29T03:39:18.889Z,56.4
2017-09-29T03:40:20.538Z,55.2
2017-09-29T03:41:22.190Z,55.7
2017-09-29T03:42:23.846Z,56.0
2017-09-29T03:43:25.507Z,56.1
2017-09-29T03:44:27.158Z,56.1
2017-09-29T03:45:28.822Z,56.5
2017-09-29T03:46:30.480Z,56.6
2017-09-29T03:47:32.141Z,56.5
2017-09-29T03:48:33.811Z,56.3
2017-09-29T03:49:35.471Z,57.0
2017-09-29T03:50:37.123Z,57.0
2017-09-29T03:51:38.783Z,56.7
2017-09-29T03:52:40.436Z,56.7
2017-09-29T03:53:42.123Z,55.9
2017-09-29T03:54:43.849Z,55.1
2017-09-29T03:55:45.609Z,54.3
2017-09-29T03:56:47.332Z,54.6
2017-09-29T03:57:49.034Z,54.2
2017-09-29T03:58:50.736Z,54.2
2017-09-29T03:59:52.448Z,54.7
2017-09-29T04:00:54.180Z,55.0
2017-09-29T04:01:55.919Z,55.4
2017-09-29T04:02:57.794Z,55.7
2017-09-29T04:03:59.726Z,55.9
2017-09-29T04:05:01.761Z,56.6
2017-09-29T04:06:03.702Z,56.5
2017-09-29T04:07:05.741Z,56.7
2017-09-29T04:08:07.714Z,56.3
2017-09-29T04:09:09.588Z,56.7
2017-09-29T04:10:11.554Z,56.1
2017-09-29T04:11:13.652Z,56.3
2017-09-29T04:12:15.588Z,56.0
2017-09-29T04:13:17.496Z,56.6
2017-09-29T04:14:19.418Z,56.3
2017-09-29T04:15:21.384Z,56.4
2017-09-29T04:16:23.267Z,55.6
2017-09-29T04:17:25.280Z,55.5
2017-09-29T04:18:27.073Z,55.7
2017-09-29T04:19:29.112Z,55.7
2017-09-29T04:20:31.061Z,55.7
2017-09-29T04:21:32.810Z,55.8
2017-09-29T04:22:34.538Z,56.4
2017-09-29T04:23:36.336Z,56.1
2017-09-29T04:24:38.173Z,56.6
2017-09-29T04:25:40.052Z,56.5
2017-09-29T04:26:41.924Z,56.7
2017-09-29T04:27:43.753Z,56.6
2017-09-29T04:28:45.589Z,56.7
2017-09-29T04:29:47.450Z,57.2
2017-09-29T04:30:49.282Z,57.3
2017-09-29T04:31:52.123Z,57.6
2017-09-29T04:32:54.068Z,58.2
2017-09-29T04:33:55.861Z,58.1
2017-09-29T04:34:57.823Z,57.9
2017-09-29T04:35:59.786Z,57.9
2017-09-29T04:37:01.761Z,58.3
2017-09-29T04:38:03.725Z,58.6
2017-09-29T04:39:05.774Z,59.0
2017-09-29T04:40:07.813Z,59.0
2017-09-29T04:41:11.713Z,59.3
2017-09-29T04:42:13.565Z,59.7
2017-09-29T04:43:15.547Z,59.4
2017-09-29T04:44:17.547Z,59.5
2017-09-29T04:45:19.466Z,59.7
2017-09-29T04:46:21.428Z,60.0
2017-09-29T04:47:24.080Z,59.9
2017-09-29T04:48:26.820Z,59.9
2017-09-29T04:49:28.747Z,59.5
2017-09-29T04:50:30.704Z,59.4
2017-09-29T04:51:32.597Z,59.3
2017-09-29T04:52:34.452Z,58.5
2017-09-29T04:53:36.355Z,58.6
2017-09-29T04:54:38.252Z,58.4
2017-09-29T04:55:39.942Z,58.8
2017-09-29T04:56:41.637Z,59.4
2017-09-29T04:57:43.397Z,58.5
2017-09-29T04:58:45.083Z,57.9
2017-09-29T04:59:46.776Z,57.6
2017-09-29T05:00:48.452Z,57.4
2017-09-29T05:01:50.114Z,57.7
2017-09-29T05:02:51.872Z,57.6
2017-09-29T05:03:53.607Z,57.2
2017-09-29T05:04:55.347Z,57.1
2017-09-29T05:05:57.043Z,56.3
2017-09-29T05:06:58.757Z,56.5
2017-09-29T05:08:00.585Z,56.4
2017-09-29T05:09:02.301Z,56.4
2017-09-29T05:10:04.034Z,56.5
2017-09-29T05:11:05.775Z,57.0
2017-09-29T05:12:07.507Z,57.4
2017-09-29T05:13:11.343Z,57.2
2017-09-29T05:14:13.117Z,56.4
2017-09-29T05:15:14.852Z,56.5
2017-09-29T05:16:16.593Z,56.5
2017-09-29T05:17:18.359Z,56.6
2017-09-29T05:18:20.115Z,56.4
2017-09-29T05:19:21.998Z,56.6
2017-09-29T05:20:23.770Z,56.1
2017-09-29T05:21:25.500Z,55.7
2017-09-29T05:22:27.206Z,55.8
2017-09-29T05:23:29.001Z,55.7
2017-09-29T05:24:30.779Z,55.6
2017-09-29T05:25:32.538Z,55.8
2017-09-29T05:26:34.285Z,55.4
2017-09-29T05:27:36.059Z,55.4
2017-09-29T05:28:37.735Z,55.1
2017-09-29T05:29:39.438Z,55.5
2017-09-29T05:30:41.175Z,55.7
2017-09-29T05:31:42.896Z,55.2
2017-09-29T05:32:44.665Z,54.8
2017-09-29T05:33:46.373Z,54.4
2017-09-29T05:34:48.123Z,54.3
2017-09-29T05:35:49.858Z,54.4
2017-09-29T05:36:51.604Z,54.9
2017-09-29T05:37:53.415Z,54.9
2017-09-29T05:38:55.166Z,55.2
2017-09-29T05:39:56.958Z,55.5
2017-09-29T05:40:58.736Z,55.0
2017-09-29T05:42:00.530Z,54.4
2017-09-29T05:43:02.263Z,54.1
2017-09-29T05:44:04.057Z,53.8
2017-09-29T05:45:05.810Z,54.3
2017-09-29T05:46:09.331Z,54.5
2017-09-29T05:47:11.071Z,54.5
2017-09-29T05:48:12.842Z,54.3
2017-09-29T05:49:15.616Z,54.1
2017-09-29T05:50:17.405Z,53.9
2017-09-29T05:51:19.159Z,54.0
2017-09-29T05:52:20.890Z,53.1
2017-09-29T05:53:22.741Z,53.2
2017-09-29T05:54:24.498Z,53.4
2017-09-29T06:01:12.199Z,53.9
2017-09-29T06:02:13.795Z,53.6
2017-09-29T06:03:15.452Z,54.0
2017-09-29T06:04:17.121Z,53.9
2017-09-29T06:05:18.779Z,54.1
2017-09-29T06:06:20.439Z,53.0
2017-09-29T06:07:22.952Z,53.5
2017-09-29T06:08:24.609Z,53.6
2017-09-29T06:09:26.269Z,54.0
2017-09-29T06:10:27.939Z,53.9
2017-09-29T06:11:29.624Z,53.1
2017-09-29T06:12:31.286Z,53.0
2017-09-29T06:13:32.951Z,52.8
2017-09-29T06:14:34.634Z,52.6
2017-09-29T06:15:36.312Z,52.9
2017-09-29T06:16:37.952Z,53.4
2017-09-29T06:17:39.611Z,53.3
2017-09-29T06:18:41.267Z,53.1
2017-09-29T06:19:42.945Z,53.4
2017-09-29T06:20:44.652Z,53.6
2017-09-29T06:21:46.386Z,54.1
2017-09-29T06:22:48.045Z,53.1
2017-09-29T06:23:49.713Z,52.8
2017-09-29T06:24:51.374Z,53.0
2017-09-29T06:25:53.116Z,52.9
2017-09-29T06:26:54.776Z,53.1
2017-09-29T06:27:56.449Z,53.0
2017-09-29T06:28:58.105Z,53.0
2017-09-29T06:29:59.767Z,52.9
2017-09-29T06:31:01.427Z,53.2
2017-09-29T06:32:03.093Z,52.7
2017-09-29T06:33:04.754Z,53.6
2017-09-29T06:34:06.420Z,53.2
2017-09-29T06:35:08.089Z,52.9
2017-09-29T06:36:09.755Z,53.1
2017-09-29T06:37:11.522Z,53.0
2017-09-29T06:38:13.185Z,53.2
2017-09-29T06:39:14.880Z,53.3
2017-09-29T06:40:16.781Z,53.4
2017-09-29T06:41:18.690Z,53.0
2017-09-29T06:42:20.630Z,53.6
2017-09-29T06:43:22.641Z,52.9
2017-09-29T06:44:24.583Z,53.0
2017-09-29T06:45:26.476Z,52.8
2017-09-29T06:46:28.450Z,53.4
2017-09-29T06:47:30.378Z,53.2
2017-09-29T06:48:32.497Z,53.5
2017-09-29T06:49:34.593Z,53.7
2017-09-29T06:50:36.673Z,53.4
2017-09-29T06:51:38.608Z,53.3
2017-09-29T06:52:40.630Z,52.9
2017-09-29T06:53:42.695Z,53.3
2017-09-29T06:54:44.882Z,52.5
2017-09-29T06:55:47.332Z,52.4
2017-09-29T06:56:49.551Z,53.1
2017-09-29T06:57:51.901Z,52.5
2017-09-29T06:58:54.078Z,52.5
2017-09-29T06:59:56.074Z,52.6
2017-09-29T07:00:58.107Z,52.2
2017-09-29T07:02:00.049Z,52.4
2017-09-29T07:03:02.008Z,52.4
2017-09-29T07:04:03.941Z,52.3
2017-09-29T07:05:06.011Z,52.3
2017-09-29T07:06:08.030Z,52.4
2017-09-29T07:07:10.086Z,52.3
2017-09-29T07:08:12.022Z,52.3
2017-09-29T07:09:14.105Z,52.6
2017-09-29T07:10:16.152Z,53.0
2017-09-29T07:11:18.096Z,52.5
2017-09-29T07:12:20.167Z,52.2
2017-09-29T07:13:22.100Z,52.3
2017-09-29T07:14:24.154Z,52.5
2017-09-29T07:15:26.080Z,52.6
2017-09-29T07:16:28.129Z,52.2
2017-09-29T07:17:30.187Z,53.0
2017-09-29T07:18:32.215Z,52.1
2017-09-29T07:19:34.222Z,52.1
2017-09-29T07:20:36.198Z,52.5
2017-09-29T07:21:38.063Z,52.0
2017-09-29T07:22:40.031Z,52.6
2017-09-29T07:23:42.132Z,52.2
2017-09-29T07:24:44.128Z,51.9
2017-09-29T07:25:46.100Z,52.0
2017-09-29T07:26:48.125Z,51.8
2017-09-29T07:27:50.128Z,52.3
2017-09-29T07:28:52.200Z,52.2
2017-09-29T07:29:54.204Z,52.4
2017-09-29T07:30:56.327Z,52.2
2017-09-29T07:31:58.348Z,52.5
2017-09-29T07:33:00.379Z,51.9
2017-09-29T07:34:02.488Z,52.0
2017-09-29T07:35:04.619Z,51.8
2017-09-29T07:36:06.783Z,53.1
2017-09-29T07:37:08.758Z,52.5
2017-09-29T07:38:10.845Z,52.5
2017-09-29T07:39:13.087Z,53.2
2017-09-29T07:40:15.022Z,53.3
2017-09-29T07:41:17.176Z,53.3
2017-09-29T07:42:19.228Z,54.2
2017-09-29T07:43:21.290Z,54.3
2017-09-29T07:44:23.316Z,53.9
2017-09-29T07:45:25.282Z,52.6
2017-09-29T07:46:27.340Z,53.5
2017-09-29T07:47:29.355Z,55.1
2017-09-29T07:48:31.333Z,53.1
2017-09-29T07:49:33.418Z,52.2
2017-09-29T07:50:35.438Z,52.3
2017-09-29T07:51:37.416Z,52.2
2017-09-29T07:52:39.471Z,53.1
2017-09-29T07:53:41.476Z,56.3
2017-09-29T07:54:43.398Z,54.7
2017-09-29T07:55:45.391Z,53.9
2017-09-29T07:56:47.304Z,54.4
2017-09-29T07:57:49.370Z,56.8
2017-09-29T07:58:51.368Z,56.6
2017-09-29T07:59:53.346Z,55.5
2017-09-29T08:00:55.225Z,55.8
2017-09-29T08:01:57.290Z,59.0
2017-09-29T08:02:59.354Z,57.4
2017-09-29T08:04:01.323Z,55.7
2017-09-29T08:05:03.409Z,57.9
2017-09-29T08:06:05.475Z,57.4
2017-09-29T08:07:07.635Z,57.5
2017-09-29T08:08:09.675Z,57.6
2017-09-29T08:09:11.780Z,57.4
2017-09-29T08:10:13.871Z,58.1
2017-09-29T08:11:15.929Z,59.5
2017-09-29T08:12:17.985Z,61.2
2017-09-29T08:13:20.050Z,63.0
2017-09-29T08:14:22.193Z,62.9
2017-09-29T08:15:24.465Z,64.5
2017-09-29T08:16:26.788Z,66.7
2017-09-29T08:17:29.279Z,64.3
2017-09-29T08:18:31.831Z,64.3
2017-09-29T08:19:34.544Z,64.8
2017-09-29T08:20:37.143Z,65.2
2017-09-29T08:21:39.661Z,67.6
2017-09-29T08:22:42.473Z,69.5
2017-09-29T08:23:44.958Z,69.8
2017-09-29T08:24:47.344Z,69.1
2017-09-29T08:25:49.932Z,68.9
2017-09-29T08:26:52.394Z,71.0
2017-09-29T08:27:54.716Z,71.3
2017-09-29T08:28:56.951Z,68.8
2017-09-29T08:29:59.409Z,73.2
2017-09-29T08:31:01.729Z,73.2
2017-09-29T08:32:04.161Z,76.7
2017-09-29T08:33:06.443Z,76.8
2017-09-29T08:34:08.989Z,79.7
2017-09-29T08:35:11.574Z,80.5
2017-09-29T08:36:13.876Z,80.7
2017-09-29T08:37:16.138Z,81.2
2017-09-29T08:38:18.597Z,84.3
2017-09-29T08:39:21.085Z,83.7
2017-09-29T08:40:23.377Z,86.3
2017-09-29T08:41:25.772Z,85.8
2017-09-29T08:42:27.982Z,87.0
2017-09-29T08:43:30.242Z,85.6
2017-09-29T08:44:32.886Z,87.2
2017-09-29T08:45:35.446Z,86.9
2017-09-29T08:46:37.999Z,87.5
2017-09-29T08:47:40.583Z,85.5
2017-09-29T08:48:42.613Z,84.9
2017-09-29T08:49:44.948Z,82.6
2017-09-29T08:50:47.432Z,97.4
2017-09-29T08:51:49.698Z,100.0
2017-09-29T08:52:51.751Z,100.0
2017-09-29T08:53:53.722Z,100.0
2017-09-29T08:54:55.648Z,100.0
2017-09-29T08:55:57.511Z,100.0
2017-09-29T08:56:59.530Z,100.0
2017-09-29T08:58:01.655Z,100.0
2017-09-29T08:59:03.566Z,100.0
2017-09-29T09:00:05.552Z,100.0
2017-09-29T09:01:07.536Z,100.0
2017-09-29T09:02:09.550Z,100.0
2017-09-29T09:03:11.568Z,100.0
2017-09-29T09:04:13.630Z,100.0
2017-09-29T09:05:15.624Z,100.0
2017-09-29T09:06:17.718Z,100.0
2017-09-29T09:07:19.964Z,100.0
2017-09-29T09:08:22.117Z,100.0
2017-09-29T09:09:24.188Z,100.0
2017-09-29T09:10:26.526Z,100.0
2017-09-29T09:11:28.462Z,100.0
2017-09-29T09:12:30.445Z,100.0
2017-09-29T09:13:32.517Z,100.0
2017-09-29T09:14:34.550Z,100.0
2017-09-29T09:15:36.631Z,100.0
2017-09-29T09:16:38.538Z,100.0
2017-09-29T09:17:40.553Z,100.0
2017-09-29T09:18:42.503Z,100.0
2017-09-29T09:19:44.460Z,100.0
2017-09-29T09:20:46.454Z,100.0
2017-09-29T09:21:48.461Z,100.0
2017-09-29T09:22:50.390Z,100.0
2017-09-29T09:23:52.346Z,100.0
2017-09-29T09:24:54.316Z,100.0
2017-09-29T09:25:56.423Z,100.0
2017-09-29T09:26:58.532Z,100.0
2017-09-29T09:28:00.474Z,100.0
2017-09-29T09:29:02.416Z,100.0
2017-09-29T09:30:04.512Z,100.0
2017-09-29T09:31:06.508Z,100.0
2017-09-29T09:32:08.473Z,100.0
2017-09-29T09:33:10.471Z,99.7
2017-09-29T09:34:12.380Z,99.6
2017-09-29T09:35:14.314Z,100.0
2017-09-29T09:36:16.316Z,100.0
2017-09-29T09:37:18.287Z,100.0
2017-09-29T09:38:20.236Z,100.0
2017-09-29T09:39:22.110Z,100.0
2017-09-29T09:40:24.118Z,100.0
2017-09-29T09:41:26.031Z,100.0
2017-09-29T09:42:27.972Z,100.0
2017-09-29T09:43:29.913Z,100.0
2017-09-29T09:44:31.892Z,100.0
2017-09-29T09:45:33.790Z,100.0
2017-09-29T09:46:35.752Z,100.0
2017-09-29T09:47:37.688Z,100.0
2017-09-29T09:48:39.615Z,100.0
2017-09-29T09:49:41.560Z,100.0
2017-09-29T09:50:43.469Z,100.0
2017-09-29T09:51:45.344Z,100.0
2017-09-29T09:52:47.322Z,100.0
2017-09-29T09:53:49.289Z,100.0
2017-09-29T09:54:51.225Z,100.0
2017-09-29T09:55:53.029Z,100.0
2017-09-29T10:02:01.296Z,100.0
2017-09-29T10:03:02.963Z,100.0
2017-09-29T10:04:04.633Z,100.0
2017-09-29T10:05:06.317Z,100.0
2017-09-29T10:06:07.990Z,100.0
2017-09-29T10:07:09.692Z,100.0
2017-09-29T10:08:11.366Z,100.0
2017-09-29T10:09:13.074Z,100.0
2017-09-29T10:10:14.824Z,100.0
2017-09-29T10:11:16.500Z,100.0
2017-09-29T10:12:18.164Z,100.0
2017-09-29T10:13:19.835Z,98.5
2017-09-29T10:14:21.511Z,99.9
2017-09-29T10:15:23.187Z,99.7
2017-09-29T10:16:24.875Z,100.0
2017-09-29T10:17:26.544Z,100.0
2017-09-29T10:18:28.262Z,100.0
2017-09-29T10:19:29.929Z,100.0
2017-09-29T10:20:31.600Z,100.0
2017-09-29T10:21:33.276Z,100.0
2017-09-29T10:22:34.954Z,100.0
2017-09-29T10:23:36.627Z,100.0
2017-09-29T10:24:38.340Z,100.0
2017-09-29T10:25:40.010Z,100.0
2017-09-29T10:26:41.679Z,100.0
2017-09-29T10:27:43.353Z,100.0
2017-09-29T10:28:45.027Z,100.0
2017-09-29T10:29:46.698Z,100.0
2017-09-29T10:30:48.377Z,100.0
2017-09-29T10:31:50.039Z,100.0
2017-09-29T10:32:51.711Z,100.0
2017-09-29T10:33:53.399Z,100.0
2017-09-29T10:34:55.068Z,100.0
2017-09-29T10:35:56.744Z,100.0
2017-09-29T10:36:58.425Z,100.0
2017-09-29T10:38:00.103Z,100.0
2017-09-29T10:39:01.774Z,100.0
2017-09-29T10:40:03.446Z,100.0
2017-09-29T10:41:05.108Z,100.0
2017-09-29T10:42:06.775Z,100.0
2017-09-29T10:43:08.449Z,100.0
2017-09-29T10:44:10.125Z,100.0
2017-09-29T10:45:11.802Z,100.0
2017-09-29T10:46:13.479Z,100.0
2017-09-29T10:47:15.155Z,100.0
2017-09-29T10:48:16.835Z,100.0
2017-09-29T10:49:18.506Z,100.0
2017-09-29T10:50:20.177Z,100.0
2017-09-29T10:51:21.850Z,100.0
2017-09-29T10:52:23.532Z,100.0
2017-09-29T10:53:25.224Z,100.0
2017-09-29T10:54:26.874Z,100.0
2017-09-29T10:55:28.552Z,100.0
2017-09-29T10:56:30.219Z,100.0
2017-09-29T10:57:31.899Z,100.0
2017-09-29T10:58:33.574Z,100.0
2017-09-29T10:59:36.001Z,100.0
2017-09-29T11:00:37.694Z,100.0
2017-09-29T11:01:39.363Z,100.0
2017-09-29T11:02:41.034Z,100.0
2017-09-29T11:03:42.709Z,100.0
2017-09-29T11:04:44.425Z,100.0
2017-09-29T11:05:46.687Z,100.0
2017-09-29T11:06:48.372Z,100.0
2017-09-29T11:07:50.185Z,100.0
2017-09-29T11:08:51.854Z,100.0
2017-09-29T11:09:53.525Z,100.0
2017-09-29T11:10:55.193Z,100.0
2017-09-29T11:11:56.920Z,100.0
2017-09-29T11:12:58.594Z,100.0
2017-09-29T11:14:00.272Z,100.0
2017-09-29T11:15:01.938Z,100.0
2017-09-29T11:16:03.610Z,100.0
2017-09-29T11:17:05.281Z,100.0
2017-09-29T11:18:06.967Z,100.0
2017-09-29T11:19:08.639Z,100.0
2017-09-29T11:20:10.307Z,100.0
2017-09-29T11:21:11.982Z,100.0
2017-09-29T11:22:13.658Z,100.0
2017-09-29T11:23:15.324Z,100.0
2017-09-29T11:24:16.984Z,100.0
2017-09-29T11:25:18.671Z,100.0
2017-09-29T11:26:20.405Z,100.0
2017-09-29T11:27:22.080Z,100.0
2017-09-29T11:28:23.751Z,100.0
2017-09-29T11:29:25.423Z,100.0
2017-09-29T11:30:27.088Z,100.0
2017-09-29T11:31:28.754Z,100.0
2017-09-29T11:32:30.450Z,100.0
2017-09-29T11:33:32.124Z,100.0
2017-09-29T11:34:33.797Z,100.0
2017-09-29T11:35:35.474Z,100.0
2017-09-29T11:36:37.144Z,100.0
2017-09-29T11:37:38.820Z,100.0
2017-09-29T11:38:40.499Z,100.0
2017-09-29T11:39:58.997Z,100.0
2017-09-29T11:41:00.682Z,100.0
2017-09-29T11:42:02.996Z,100.0
2017-09-29T11:43:05.719Z,100.0
2017-09-29T11:44:07.488Z,100.0
2017-09-29T11:45:10.188Z,100.0
2017-09-29T11:46:11.986Z,100.0
2017-09-29T11:47:14.716Z,100.0
2017-09-29T11:48:17.300Z,100.0
2017-09-29T11:49:22.206Z,100.0
2017-09-29T11:50:24.780Z,100.0
2017-09-29T11:51:26.517Z,100.0
2017-09-29T11:52:28.300Z,100.0
2017-09-29T11:53:30.929Z,100.0
2017-09-29T11:54:32.692Z,100.0
2017-09-29T11:55:36.005Z,100.0
2017-09-29T11:56:38.589Z,100.0
2017-09-29T11:57:40.440Z,100.0
2017-09-29T11:58:43.218Z,100.0
2017-09-29T11:59:44.979Z,100.0
2017-09-29T12:00:46.815Z,100.0
2017-09-29T12:01:48.996Z,99.4
2017-09-29T12:02:51.458Z,98.6
2017-09-29T12:03:53.809Z,99.2
2017-09-29T12:04:55.675Z,100.0
2017-09-29T12:05:58.034Z,100.0
2017-09-29T12:06:59.819Z,100.0
2017-09-29T12:08:02.410Z,100.0
2017-09-29T12:09:04.161Z,100.0
2017-09-29T12:10:06.514Z,100.0
2017-09-29T12:11:08.311Z,100.0
2017-09-29T12:12:10.838Z,100.0
2017-09-29T12:13:12.668Z,100.0
2017-09-29T12:14:15.822Z,100.0
2017-09-29T12:15:17.827Z,100.0
2017-09-29T12:16:20.016Z,100.0
2017-09-29T12:17:21.753Z,100.0
2017-09-29T12:18:23.572Z,100.0
2017-09-29T12:19:25.316Z,100.0
2017-09-29T12:20:27.119Z,100.0
2017-09-29T12:21:30.114Z,100.0
2017-09-29T12:22:31.876Z,100.0
2017-09-29T12:23:34.158Z,100.0
2017-09-29T12:24:35.923Z,100.0
2017-09-29T12:25:38.628Z,100.0
2017-09-29T12:26:40.546Z,100.0
2017-09-29T12:27:42.294Z,100.0
2017-09-29T12:28:45.418Z,100.0
2017-09-29T12:29:47.443Z,100.0
2017-09-29T12:30:49.366Z,100.0
2017-09-29T12:31:51.582Z,100.0
2017-09-29T12:32:54.074Z,100.0
2017-09-29T12:33:55.717Z,100.0
2017-09-29T12:34:57.994Z,100.0
2017-09-29T12:35:59.830Z,100.0
2017-09-29T12:37:02.528Z,100.0
2017-09-29T12:38:04.242Z,100.0
2017-09-29T12:39:06.925Z,100.0
2017-09-29T12:40:08.790Z,100.0
2017-09-29T12:41:11.289Z,100.0
2017-09-29T12:42:13.037Z,100.0
2017-09-29T12:43:15.657Z,100.0
2017-09-29T12:44:17.447Z,100.0
2017-09-29T12:45:19.827Z,100.0
2017-09-29T12:46:21.610Z,100.0
2017-09-29T12:47:24.125Z,100.0
2017-09-29T12:48:25.917Z,100.0
2017-09-29T12:49:28.330Z,100.0
2017-09-29T12:50:30.045Z,100.0
2017-09-29T12:51:32.394Z,100.0
2017-09-29T12:52:34.210Z,100.0
2017-09-29T12:53:36.456Z,100.0
2017-09-29T12:54:38.889Z,100.0
2017-09-29T12:55:41.806Z,100.0
2017-09-29T12:56:45.518Z,100.0
2017-09-29T12:57:47.327Z,100.0
2017-09-29T12:58:49.215Z,100.0
2017-09-29T12:59:50.993Z,100.0
2017-09-29T13:00:52.761Z,100.0
2017-09-29T13:01:54.570Z,100.0
2017-09-29T13:03:00.807Z,100.0
2017-09-29T13:04:03.206Z,100.0
2017-09-29T13:05:04.985Z,100.0
2017-09-29T13:06:07.580Z,100.0
2017-09-29T13:07:09.413Z,99.5
2017-09-29T13:08:12.231Z,100.0
2017-09-29T13:09:14.777Z,99.7
2017-09-29T13:10:16.321Z,100.0
2017-09-29T13:11:19.339Z,100.0
2017-09-29T13:12:21.662Z,100.0
2017-09-29T13:13:23.193Z,100.0
2017-09-29T13:14:24.993Z,100.0
2017-09-29T13:15:26.723Z,100.0
2017-09-29T13:16:28.469Z,100.0
2017-09-29T13:17:30.291Z,100.0
2017-09-29T13:18:32.064Z,100.0
2017-09-29T13:19:34.294Z,100.0
2017-09-29T13:20:36.022Z,100.0
2017-09-29T13:21:38.613Z,100.0
2017-09-29T13:22:40.398Z,100.0
2017-09-29T13:23:42.557Z,100.0
2017-09-29T13:24:44.276Z,100.0
2017-09-29T13:25:46.375Z,99.8
2017-09-29T13:26:48.102Z,96.6
2017-09-29T13:27:50.716Z,94.8
2017-09-29T13:28:52.430Z,93.8
2017-09-29T13:29:54.781Z,93.6
2017-09-29T13:30:56.604Z,94.7
2017-09-29T13:31:59.091Z,95.7
2017-09-29T13:33:00.877Z,96.9
2017-09-29T13:34:02.640Z,98.3
2017-09-29T13:35:04.408Z,99.9
2017-09-29T13:36:06.288Z,100.0
2017-09-29T13:37:08.137Z,100.0
2017-09-29T13:38:09.961Z,100.0
2017-09-29T13:39:11.756Z,100.0
2017-09-29T13:40:13.532Z,100.0
2017-09-29T13:41:15.382Z,100.0
2017-09-29T13:42:17.274Z,100.0
2017-09-29T13:43:19.111Z,100.0
2017-09-29T13:44:20.919Z,100.0
2017-09-29T13:45:22.683Z,100.0
2017-09-29T13:46:24.533Z,100.0
2017-09-29T13:47:26.369Z,100.0
2017-09-29T13:48:29.018Z,100.0
2017-09-29T13:49:30.837Z,100.0
2017-09-29T13:50:32.559Z,100.0